Time;durP1;ratioP1;P1;durP2;ratioP2;P2;SDS_P1;SDS_P2;PMS_P1;PMS_P2;Temp;Humidity;BMP_temperature;BMP_pressure;BME280_temperature;BME280_humidity;BME280_pressure;Samples;Min_cycle;Max_cycle;Signal;HPM_P1;HPM_P2
2021/12/06 00:01:23;;;;;;;12.40;9.10;;;;;;;;;;101199;1329;64045;-25
2021/12/06 00:03:57;;;;;;;13.20;9.50;;;;;;;;;;101263;1342;64124;-26
2021/12/06 00:06:28;;;;;;;13.10;9.70;;;;;;;;;;101257;1340;64034;-30
2021/12/06 00:08:55;;;;;;;13.00;9.60;;;;;;;;;;101279;1333;64011;-30
2021/12/06 00:11:26;;;;;;;12.80;8.90;;;;;;;;;;98936;1329;3313213;-31
2021/12/06 00:13:52;;;;;;;13.40;9.30;;;;;;;;;;101277;1329;64114;-31
2021/12/06 00:16:23;;;;;;;14.10;9.30;;;;;;;;;;101247;1329;64239;-26
2021/12/06 00:18:51;;;;;;;11.80;9.40;;;;;;;;;;101250;1329;64434;-25
2021/12/06 00:21:22;;;;;;;11.70;8.50;;;;;;;;;;101247;1329;64090;-31
2021/12/06 00:23:52;;;;;;;13.30;9.10;;;;;;;;;;101255;1335;64119;-31
2021/12/06 00:26:22;;;;;;;11.50;8.90;;;;;;;;;;101292;1329;64559;-25
2021/12/06 00:28:56;;;;;;;12.90;8.70;;;;;;;;;;101250;1329;64002;-26
2021/12/06 00:31:30;;;;;;;13.20;9.30;;;;;;;;;;101195;1332;64163;-31
2021/12/06 00:34:05;;;;;;;12.40;8.20;;;;;;;;;;101282;1333;64132;-31
2021/12/06 00:36:37;;;;;;;12.50;8.90;;;;;;;;;;101283;1329;64213;-31
2021/12/06 00:39:07;;;;;;;13.90;9.10;;;;;;;;;;101107;1329;64112;-30
2021/12/06 00:41:37;;;;;;;12.30;8.40;;;;;;;;;;101252;1329;64216;-31
2021/12/06 00:44:06;;;;;;;13.50;8.70;;;;;;;;;;101253;1329;64035;-31
2021/12/06 00:46:34;;;;;;;13.10;9.00;;;;;;;;;;101247;1329;64824;-31
2021/12/06 00:49:01;;;;;;;12.40;8.30;;;;;;;;;;101271;1329;64027;-30
2021/12/06 00:51:28;;;;;;;12.60;8.60;;;;;;;;;;101244;1329;64125;-30
2021/12/06 00:53:55;;;;;;;12.60;8.50;;;;;;;;;;101270;1329;64259;-31
2021/12/06 00:56:22;;;;;;;13.30;8.60;;;;;;;;;;101232;1329;64570;-31
2021/12/06 00:58:49;;;;;;;12.10;8.60;;;;;;;;;;101251;1329;63965;-31
2021/12/06 01:01:19;;;;;;;10.90;7.40;;;;;;;;;;101245;1329;64123;-30
2021/12/06 01:03:46;;;;;;;11.30;7.80;;;;;;;;;;101256;1329;64010;-31
2021/12/06 01:06:16;;;;;;;12.20;8.10;;;;;;;;;;101267;1336;64236;-31
2021/12/06 01:08:46;;;;;;;12.50;9.10;;;;;;;;;;101257;1328;64078;-31
2021/12/06 01:11:16;;;;;;;12.60;8.40;;;;;;;;;;101230;1329;64001;-31
2021/12/06 01:13:47;;;;;;;12.90;8.10;;;;;;;;;;101116;1332;64117;-31
2021/12/06 01:16:17;;;;;;;10.60;7.40;;;;;;;;;;101211;1328;64073;-30
2021/12/06 01:18:46;;;;;;;9.90;7.40;;;;;;;;;;101262;1333;64171;-30
2021/12/06 01:21:20;;;;;;;12.40;8.50;;;;;;;;;;101280;1335;64078;-25
2021/12/06 01:23:59;;;;;;;10.50;7.70;;;;;;;;;;101272;1342;64092;-26
2021/12/06 01:27:03;;;;;;;11.40;6.90;;;;;;;;;;101260;1327;64130;-32
2021/12/06 01:33:03;;;;;;;11.40;7.40;;;;;;;;;;101259;1329;63995;-26
2021/12/06 01:40:26;;;;;;;10.70;7.50;;;;;;;;;;101255;1329;64018;-25
2021/12/06 01:42:56;;;;;;;11.20;7.50;;;;;;;;;;101248;1329;65913;-25
2021/12/06 01:45:23;;;;;;;11.20;7.40;;;;;;;;;;101226;1329;64223;-31
2021/12/06 01:47:50;;;;;;;10.20;7.40;;;;;;;;;;101248;1335;64006;-31
2021/12/06 01:50:19;;;;;;;9.80;7.00;;;;;;;;;;101079;1331;64194;-26
2021/12/06 01:52:50;;;;;;;11.70;7.50;;;;;;;;;;101057;1336;64681;-26
2021/12/06 01:55:22;;;;;;;9.50;6.70;;;;;;;;;;101275;1327;64102;-31
2021/12/06 01:57:53;;;;;;;11.20;7.20;;;;;;;;;;101237;1335;64134;-32
2021/12/06 02:00:50;;;;;;;10.00;7.00;;;;;;;;;;101243;1329;64210;-29
2021/12/06 02:03:16;;;;;;;9.10;6.40;;;;;;;;;;100527;1334;64143;-25
2021/12/06 02:05:50;;;;;;;10.70;6.90;;;;;;;;;;101260;1329;64135;-25
2021/12/06 02:08:17;;;;;;;10.10;6.50;;;;;;;;;;101266;1329;64135;-26
2021/12/06 02:10:47;;;;;;;9.30;6.70;;;;;;;;;;101239;1329;63998;-31
2021/12/06 02:13:14;;;;;;;10.10;6.60;;;;;;;;;;101239;1329;64098;-30
2021/12/06 02:15:49;;;;;;;9.70;6.70;;;;;;;;;;101268;1329;64017;-25
2021/12/06 02:21:23;;;;;;;9.60;6.40;;;;;;;;;;101228;1329;64136;-31
2021/12/06 02:23:50;;;;;;;9.70;6.70;;;;;;;;;;101232;1329;64093;-32
2021/12/06 02:26:17;;;;;;;9.00;6.30;;;;;;;;;;101249;1329;64146;-26
2021/12/06 02:28:44;;;;;;;10.40;6.80;;;;;;;;;;101267;1329;64066;-26
2021/12/06 02:31:15;;;;;;;10.10;6.10;;;;;;;;;;101203;1333;64710;-24
2021/12/06 02:33:48;;;;;;;10.10;7.00;;;;;;;;;;101273;1329;64211;-24
2021/12/06 02:36:19;;;;;;;9.30;6.70;;;;;;;;;;101230;1328;64124;-25
2021/12/06 02:38:46;;;;;;;9.30;6.90;;;;;;;;;;101268;1336;63994;-26
2021/12/06 02:41:14;;;;;;;8.70;6.10;;;;;;;;;;101273;1329;64048;-26
2021/12/06 02:43:42;;;;;;;8.30;6.70;;;;;;;;;;101227;1329;64049;-25
2021/12/06 02:46:09;;;;;;;9.90;6.40;;;;;;;;;;101268;1329;63972;-25
2021/12/06 02:48:36;;;;;;;9.80;6.90;;;;;;;;;;101248;1329;64174;-25
2021/12/06 02:51:07;;;;;;;9.50;6.20;;;;;;;;;;101266;1340;64115;-25
2021/12/06 02:53:38;;;;;;;9.50;6.40;;;;;;;;;;101237;1333;64250;-26
2021/12/06 02:56:18;;;;;;;8.60;6.20;;;;;;;;;;101266;1335;64242;-25
2021/12/06 02:58:56;;;;;;;9.00;6.20;;;;;;;;;;101269;1328;64094;-25
2021/12/06 03:01:32;;;;;;;9.30;6.60;;;;;;;;;;101258;1329;64008;-31
2021/12/06 03:04:03;;;;;;;9.80;6.40;;;;;;;;;;101252;1329;64123;-31
2021/12/06 03:06:33;;;;;;;9.60;6.20;;;;;;;;;;101203;1329;64141;-26
2021/12/06 03:09:12;;;;;;;9.80;6.90;;;;;;;;;;101246;1328;64038;-26
2021/12/06 03:11:44;;;;;;;9.10;6.20;;;;;;;;;;101249;1329;64140;-31
2021/12/06 03:14:19;;;;;;;9.60;6.40;;;;;;;;;;101254;1329;64155;-28
2021/12/06 03:16:49;;;;;;;8.20;5.90;;;;;;;;;;101249;1343;64147;-30
2021/12/06 03:19:16;;;;;;;8.80;5.50;;;;;;;;;;101264;1337;64221;-29
2021/12/06 03:21:47;;;;;;;8.10;6.20;;;;;;;;;;101276;1335;64012;-32
2021/12/06 03:24:13;;;;;;;9.60;5.50;;;;;;;;;;101239;1329;64069;-29
2021/12/06 03:26:44;;;;;;;8.90;6.00;;;;;;;;;;101253;1329;64129;-31
2021/12/06 03:29:14;;;;;;;8.90;6.40;;;;;;;;;;101248;1329;64057;-29
2021/12/06 03:31:42;;;;;;;8.50;5.70;;;;;;;;;;101243;1329;64727;-25
2021/12/06 03:34:09;;;;;;;8.80;5.80;;;;;;;;;;101054;1332;64028;-26
2021/12/06 03:36:38;;;;;;;8.00;5.40;;;;;;;;;;101247;1335;63998;-31
2021/12/06 03:39:07;;;;;;;9.80;6.10;;;;;;;;;;101273;1329;64048;-30
2021/12/06 03:41:37;;;;;;;8.30;6.00;;;;;;;;;;101226;1329;64064;-26
2021/12/06 03:44:07;;;;;;;8.00;5.50;;;;;;;;;;101254;1329;64155;-25
2021/12/06 03:46:37;;;;;;;8.60;5.80;;;;;;;;;;101280;1329;64147;-30
2021/12/06 03:49:09;;;;;;;8.30;5.60;;;;;;;;;;101282;1328;64097;-31
2021/12/06 03:51:40;;;;;;;7.70;5.70;;;;;;;;;;101265;1329;64115;-31
2021/12/06 03:54:06;;;;;;;8.70;6.00;;;;;;;;;;101236;1328;64759;-30
2021/12/06 03:56:37;;;;;;;8.30;5.40;;;;;;;;;;101237;1327;64118;-31
2021/12/06 03:59:07;;;;;;;7.30;5.00;;;;;;;;;;101251;1327;64024;-30
2021/12/06 04:01:38;;;;;;;7.20;5.20;;;;;;;;;;101272;1335;63991;-30
2021/12/06 04:04:10;;;;;;;7.50;4.90;;;;;;;;;;101245;1332;64114;-30
2021/12/06 04:06:38;;;;;;;7.80;5.10;;;;;;;;;;101252;1329;64091;-31
2021/12/06 04:09:09;;;;;;;8.10;5.20;;;;;;;;;;101284;1329;64101;-31
2021/12/06 04:11:39;;;;;;;8.30;5.20;;;;;;;;;;101238;1329;64009;-26
2021/12/06 04:14:06;;;;;;;7.40;4.90;;;;;;;;;;101257;1329;64031;-26
2021/12/06 04:16:36;;;;;;;7.10;4.60;;;;;;;;;;101256;1329;64156;-31
2021/12/06 04:19:04;;;;;;;8.10;5.40;;;;;;;;;;101274;1329;64139;-35
2021/12/06 04:21:32;;;;;;;7.70;4.80;;;;;;;;;;101262;1329;64020;-25
2021/12/06 04:24:02;;;;;;;7.20;4.40;;;;;;;;;;101226;1329;63976;-25
2021/12/06 04:26:32;;;;;;;6.40;4.80;;;;;;;;;;101243;1335;64239;-31
2021/12/06 04:28:59;;;;;;;6.40;4.60;;;;;;;;;;101296;1335;64117;-32
2021/12/06 04:31:31;;;;;;;6.80;4.70;;;;;;;;;;101266;1329;64025;-32
2021/12/06 04:33:58;;;;;;;6.50;4.70;;;;;;;;;;101284;1325;65674;-30
2021/12/06 04:36:26;;;;;;;7.60;4.90;;;;;;;;;;101256;1339;64203;-26
2021/12/06 04:38:53;;;;;;;6.40;4.60;;;;;;;;;;101258;1329;64019;-25
2021/12/06 04:41:20;;;;;;;7.60;4.80;;;;;;;;;;101272;1335;64025;-31
2021/12/06 04:43:50;;;;;;;6.70;4.40;;;;;;;;;;101246;1335;64664;-31
2021/12/06 04:46:20;;;;;;;7.20;4.80;;;;;;;;;;101247;1329;64067;-26
2021/12/06 04:48:50;;;;;;;6.90;4.20;;;;;;;;;;101252;1333;64170;-36
2021/12/06 04:51:21;;;;;;;6.70;4.20;;;;;;;;;;101191;1333;64095;-27
2021/12/06 04:53:51;;;;;;;6.50;4.50;;;;;;;;;;100994;1331;64003;-32
2021/12/06 04:56:30;;;;;;;7.40;4.30;;;;;;;;;;101256;1339;64054;-31
2021/12/06 04:59:05;;;;;;;7.20;4.40;;;;;;;;;;101266;1335;64252;-31
2021/12/06 05:01:33;;;;;;;6.40;4.30;;;;;;;;;;101247;1329;64050;-25
2021/12/06 05:04:06;;;;;;;6.80;4.20;;;;;;;;;;101278;1329;64269;-25
2021/12/06 05:06:36;;;;;;;5.90;4.10;;;;;;;;;;101245;1340;64735;-31
2021/12/06 05:09:22;;;;;;;7.20;4.30;;;;;;;;;;101113;1343;63992;-30
2021/12/06 05:11:53;;;;;;;7.80;4.50;;;;;;;;;;101100;1329;64132;-25
2021/12/06 05:14:20;;;;;;;7.00;4.30;;;;;;;;;;101282;1329;64029;-26
2021/12/06 05:16:46;;;;;;;6.90;4.70;;;;;;;;;;101254;1343;64252;-25
2021/12/06 05:19:16;;;;;;;5.70;4.20;;;;;;;;;;101272;1329;64216;-26
2021/12/06 05:21:44;;;;;;;8.00;4.50;;;;;;;;;;101270;1342;64688;-31
2021/12/06 05:24:15;;;;;;;7.30;4.20;;;;;;;;;;101238;1329;64115;-29
2021/12/06 05:26:46;;;;;;;6.40;4.10;;;;;;;;;;101102;1331;64220;-31
2021/12/06 05:29:19;;;;;;;6.60;4.20;;;;;;;;;;101243;1329;64124;-26
2021/12/06 05:31:54;;;;;;;6.80;4.30;;;;;;;;;;101069;1343;65303;-25
2021/12/06 05:34:29;;;;;;;6.40;4.30;;;;;;;;;;101079;1338;64066;-25
2021/12/06 05:36:59;;;;;;;6.60;4.10;;;;;;;;;;101231;1329;64004;-25
2021/12/06 05:39:30;;;;;;;6.60;4.20;;;;;;;;;;101258;1333;64096;-25
2021/12/06 05:41:59;;;;;;;6.10;3.90;;;;;;;;;;101179;1328;63996;-25
2021/12/06 05:44:26;;;;;;;6.60;4.10;;;;;;;;;;101203;1339;64089;-26
2021/12/06 05:46:56;;;;;;;6.40;4.70;;;;;;;;;;101260;1329;64700;-26
2021/12/06 05:49:23;;;;;;;6.70;4.60;;;;;;;;;;101252;1329;64146;-30
2021/12/06 05:51:54;;;;;;;6.20;3.80;;;;;;;;;;101245;1329;64039;-31
2021/12/06 05:54:21;;;;;;;7.70;4.10;;;;;;;;;;101092;1332;64241;-30
2021/12/06 05:56:51;;;;;;;6.70;4.20;;;;;;;;;;101251;1329;64183;-31
2021/12/06 05:59:21;;;;;;;6.50;3.90;;;;;;;;;;101221;1335;64696;-25
2021/12/06 06:01:53;;;;;;;6.70;4.00;;;;;;;;;;101242;1329;64092;-26
2021/12/06 06:04:26;;;;;;;6.40;4.40;;;;;;;;;;101234;1329;64129;-25
2021/12/06 06:06:55;;;;;;;6.00;3.90;;;;;;;;;;101246;1335;64197;-25
2021/12/06 06:09:25;;;;;;;6.90;4.40;;;;;;;;;;101236;1329;64083;-34
2021/12/06 06:11:52;;;;;;;10.30;4.30;;;;;;;;;;101237;1329;64053;-25
2021/12/06 06:14:20;;;;;;;7.10;4.40;;;;;;;;;;101241;1329;64692;-30
2021/12/06 06:16:52;;;;;;;7.00;4.30;;;;;;;;;;101268;1333;64215;-30
2021/12/06 06:19:24;;;;;;;6.40;4.10;;;;;;;;;;101298;1335;64037;-25
2021/12/06 06:21:54;;;;;;;7.80;4.20;;;;;;;;;;101253;1335;64096;-27
2021/12/06 06:24:27;;;;;;;7.40;4.40;;;;;;;;;;101237;1329;64128;-31
2021/12/06 06:26:56;;;;;;;9.50;4.60;;;;;;;;;;101270;1329;64120;-31
2021/12/06 06:29:23;;;;;;;7.20;4.50;;;;;;;;;;101289;1329;64095;-25
2021/12/06 06:31:53;;;;;;;6.10;4.10;;;;;;;;;;101253;1329;64129;-26
2021/12/06 06:34:20;;;;;;;6.50;4.40;;;;;;;;;;101270;1336;64232;-26
2021/12/06 06:36:50;;;;;;;7.00;4.20;;;;;;;;;;101261;1336;64051;-27
2021/12/06 06:39:19;;;;;;;8.50;4.00;;;;;;;;;;101257;1329;64111;-25
2021/12/06 06:41:50;;;;;;;6.60;4.20;;;;;;;;;;101246;1329;64009;-29
2021/12/06 06:44:17;;;;;;;7.10;4.40;;;;;;;;;;101243;1329;64121;-35
2021/12/06 06:46:44;;;;;;;6.60;4.00;;;;;;;;;;101174;1338;64227;-31
2021/12/06 06:49:15;;;;;;;6.80;4.20;;;;;;;;;;101158;1344;64085;-27
2021/12/06 06:51:47;;;;;;;6.80;4.40;;;;;;;;;;101176;1342;64051;-26
2021/12/06 06:54:18;;;;;;;6.60;4.50;;;;;;;;;;101195;1328;64275;-26
2021/12/06 06:56:45;;;;;;;6.60;4.30;;;;;;;;;;101168;1328;64166;-26
2021/12/06 06:59:12;;;;;;;7.90;4.70;;;;;;;;;;101150;1333;64150;-28
2021/12/06 07:01:39;;;;;;;6.80;4.20;;;;;;;;;;101175;1338;64131;-41
2021/12/06 07:04:09;;;;;;;6.50;4.30;;;;;;;;;;101149;1337;64130;-32
2021/12/06 07:06:36;;;;;;;6.50;3.80;;;;;;;;;;101027;1331;64153;-26
2021/12/06 07:09:06;;;;;;;6.80;4.00;;;;;;;;;;101174;1329;64152;-25
2021/12/06 07:11:33;;;;;;;7.00;4.50;;;;;;;;;;101179;1339;64595;-32
2021/12/06 07:14:03;;;;;;;6.30;4.00;;;;;;;;;;101169;1328;64163;-37
2021/12/06 07:16:30;;;;;;;6.60;4.90;;;;;;;;;;101171;1328;64134;-32
2021/12/06 07:19:00;;;;;;;8.30;4.60;;;;;;;;;;101181;1338;64016;-31
2021/12/06 07:21:27;;;;;;;6.80;4.20;;;;;;;;;;101157;1329;64021;-26
2021/12/06 07:23:57;;;;;;;7.80;4.80;;;;;;;;;;101093;1345;63999;-27
2021/12/06 07:26:24;;;;;;;6.70;4.40;;;;;;;;;;101023;1338;64127;-32
2021/12/06 07:28:57;;;;;;;7.30;4.60;;;;;;;;;;101183;1328;64089;-33
2021/12/06 07:31:24;;;;;;;7.80;5.20;;;;;;;;;;101181;1342;64128;-31
2021/12/06 07:33:54;;;;;;;7.20;4.50;;;;;;;;;;101187;1329;64003;-31
2021/12/06 07:36:22;;;;;;;7.10;4.40;;;;;;;;;;101174;1329;64161;-39
2021/12/06 07:38:53;;;;;;;7.60;4.90;;;;;;;;;;101180;1329;64095;-31
2021/12/06 07:41:21;;;;;;;7.10;4.50;;;;;;;;;;101149;1338;64094;-26
2021/12/06 07:43:51;;;;;;;8.10;4.70;;;;;;;;;;101142;1328;64079;-26
2021/12/06 07:46:17;;;;;;;9.10;5.00;;;;;;;;;;101227;1335;64562;-26
2021/12/06 07:48:52;;;;;;;7.20;4.30;;;;;;;;;;101081;1336;64014;-24
2021/12/06 07:51:24;;;;;;;7.00;4.70;;;;;;;;;;101253;1336;64134;-25
2021/12/06 07:53:54;;;;;;;7.50;4.40;;;;;;;;;;101236;1329;64101;-26
2021/12/06 07:56:21;;;;;;;8.10;4.50;;;;;;;;;;101254;1329;64151;-29
2021/12/06 07:58:51;;;;;;;7.80;4.90;;;;;;;;;;101252;1335;64165;-29
2021/12/06 08:01:19;;;;;;;6.80;4.80;;;;;;;;;;101278;1329;64022;-25
2021/12/06 08:03:49;;;;;;;7.50;4.70;;;;;;;;;;101236;1343;64243;-25
2021/12/06 08:06:15;;;;;;;8.10;5.00;;;;;;;;;;101258;1339;64270;-31
2021/12/06 08:08:46;;;;;;;7.10;4.60;;;;;;;;;;101254;1333;64043;-31
2021/12/06 08:11:16;;;;;;;8.20;5.50;;;;;;;;;;97521;1329;5339882;-26
2021/12/06 08:13:45;;;;;;;7.90;5.20;;;;;;;;;;101263;1329;64211;-27
2021/12/06 08:16:16;;;;;;;7.80;4.70;;;;;;;;;;101253;1342;64122;-38
2021/12/06 08:18:44;;;;;;;7.80;5.00;;;;;;;;;;101260;1329;64135;-36
2021/12/06 08:21:12;;;;;;;7.10;4.70;;;;;;;;;;101243;1343;64068;-25
2021/12/06 08:23:42;;;;;;;8.90;5.10;;;;;;;;;;101241;1338;64011;-26
2021/12/06 08:26:13;;;;;;;7.20;5.20;;;;;;;;;;101257;1329;65620;-31
2021/12/06 08:28:40;;;;;;;8.80;5.20;;;;;;;;;;101276;1340;64001;-31
2021/12/06 08:31:11;;;;;;;7.60;5.00;;;;;;;;;;101217;1333;64174;-25
2021/12/06 08:33:43;;;;;;;7.90;5.10;;;;;;;;;;101251;1342;64034;-26
2021/12/06 08:36:10;;;;;;;8.20;5.50;;;;;;;;;;101145;1343;64271;-31
2021/12/06 08:38:40;;;;;;;9.00;5.10;;;;;;;;;;101165;1342;64242;-31
2021/12/06 08:41:10;;;;;;;8.40;5.50;;;;;;;;;;101271;1343;64010;-26
2021/12/06 08:43:41;;;;;;;7.20;4.90;;;;;;;;;;101257;1342;64006;-26
2021/12/06 08:46:11;;;;;;;7.40;4.80;;;;;;;;;;101244;1344;64120;-25
2021/12/06 08:48:39;;;;;;;7.90;4.80;;;;;;;;;;101268;1329;64165;-26
2021/12/06 08:51:29;;;;;;;7.80;5.10;;;;;;;;;;101255;1329;64160;-25
2021/12/06 08:54:00;;;;;;;7.60;5.20;;;;;;;;;;100462;1348;64128;-27
2021/12/06 08:56:27;;;;;;;8.00;5.10;;;;;;;;;;101196;1343;64116;-25
2021/12/06 08:58:57;;;;;;;8.00;5.30;;;;;;;;;;101276;1329;64108;-26
2021/12/06 09:01:26;;;;;;;9.60;5.70;;;;;;;;;;101280;1342;64078;-28
2021/12/06 09:03:53;;;;;;;7.60;5.10;;;;;;;;;;101142;1343;64060;-27
2021/12/06 09:06:20;;;;;;;8.20;5.60;;;;;;;;;;101239;1336;64745;-26
2021/12/06 09:08:47;;;;;;;7.90;5.40;;;;;;;;;;101259;1342;64163;-26
2021/12/06 09:11:14;;;;;;;9.80;6.00;;;;;;;;;;101253;1328;64053;-30
2021/12/06 09:13:42;;;;;;;9.00;6.40;;;;;;;;;;101229;1342;64057;-27
2021/12/06 09:16:10;;;;;;;7.80;5.50;;;;;;;;;;101236;1344;64127;-28
2021/12/06 09:18:39;;;;;;;10.20;6.40;;;;;;;;;;101232;1328;64128;-27
2021/12/06 09:21:07;;;;;;;9.40;5.70;;;;;;;;;;101233;1328;64246;-26
2021/12/06 09:23:35;;;;;;;8.50;5.70;;;;;;;;;;101231;1342;63991;-27
2021/12/06 09:26:02;;;;;;;9.30;6.10;;;;;;;;;;101206;1344;64014;-27
2021/12/06 09:28:31;;;;;;;9.30;6.60;;;;;;;;;;101226;1329;64127;-27
2021/12/06 09:30:57;;;;;;;9.10;5.90;;;;;;;;;;101245;1342;64002;-28
2021/12/06 09:33:24;;;;;;;9.70;6.80;;;;;;;;;;101230;1342;64023;-27
2021/12/06 09:35:54;;;;;;;9.20;6.30;;;;;;;;;;101228;1342;64129;-28
2021/12/06 09:38:23;;;;;;;9.30;6.50;;;;;;;;;;101247;1341;64156;-26
2021/12/06 09:40:52;;;;;;;8.60;6.50;;;;;;;;;;101309;1342;64648;-28
2021/12/06 09:43:19;;;;;;;9.10;6.70;;;;;;;;;;101279;1336;64065;-28
2021/12/06 09:45:47;;;;;;;8.70;6.00;;;;;;;;;;101231;1342;64274;-28
2021/12/06 09:48:16;;;;;;;9.60;6.30;;;;;;;;;;101267;1342;64001;-27
2021/12/06 09:51:03;;;;;;;9.70;7.30;;;;;;;;;;101309;1342;64144;-26
2021/12/06 09:53:31;;;;;;;10.60;7.20;;;;;;;;;;101257;1342;64207;-25
2021/12/06 09:56:05;;;;;;;10.70;7.00;;;;;;;;;;101251;1342;64527;-28
2021/12/06 09:58:32;;;;;;;10.00;6.60;;;;;;;;;;101261;1342;64211;-28
2021/12/06 10:01:05;;;;;;;9.30;6.60;;;;;;;;;;101188;1343;64127;-28
2021/12/06 10:03:33;;;;;;;9.40;6.60;;;;;;;;;;101141;1328;64081;-29
2021/12/06 10:06:04;;;;;;;10.50;6.70;;;;;;;;;;101151;1344;64244;-28
2021/12/06 10:08:32;;;;;;;9.00;6.40;;;;;;;;;;101118;1344;64080;-28
2021/12/06 10:10:59;;;;;;;10.00;7.10;;;;;;;;;;101130;1344;64112;-33
2021/12/06 10:13:27;;;;;;;9.40;6.70;;;;;;;;;;101230;1341;64062;-28
2021/12/06 10:15:54;;;;;;;9.70;6.60;;;;;;;;;;101235;1340;63992;-28
2021/12/06 10:18:21;;;;;;;9.80;7.40;;;;;;;;;;101255;1342;64046;-30
2021/12/06 10:20:48;;;;;;;10.80;6.80;;;;;;;;;;101259;1336;65702;-29
2021/12/06 10:23:16;;;;;;;9.80;6.90;;;;;;;;;;101237;1332;63978;-27
2021/12/06 10:25:45;;;;;;;9.40;6.80;;;;;;;;;;101083;1344;64144;-27
2021/12/06 10:28:14;;;;;;;9.40;6.80;;;;;;;;;;101273;1339;64070;-28
2021/12/06 10:30:43;;;;;;;9.80;6.90;;;;;;;;;;101258;1327;64673;-27
2021/12/06 10:33:12;;;;;;;9.10;6.30;;;;;;;;;;101231;1342;64082;-27
2021/12/06 10:35:42;;;;;;;9.90;7.30;;;;;;;;;;101155;1341;64046;-29
2021/12/06 10:38:09;;;;;;;8.90;6.30;;;;;;;;;;101164;1343;64134;-28
2021/12/06 10:40:38;;;;;;;9.40;6.70;;;;;;;;;;101184;1328;64139;-27
2021/12/06 10:43:09;;;;;;;8.60;6.30;;;;;;;;;;101158;1342;63986;-26
2021/12/06 10:45:38;;;;;;;9.10;7.10;;;;;;;;;;101155;1338;64156;-27
2021/12/06 10:48:05;;;;;;;9.50;6.80;;;;;;;;;;101158;1342;64118;-27
2021/12/06 10:50:32;;;;;;;9.80;6.60;;;;;;;;;;101147;1342;63463;-26
2021/12/06 10:53:00;;;;;;;11.00;6.50;;;;;;;;;;101149;1344;64175;-28
2021/12/06 10:55:29;;;;;;;8.50;6.60;;;;;;;;;;101139;1340;64001;-30
2021/12/06 10:57:59;;;;;;;9.80;7.10;;;;;;;;;;101188;1344;64155;-27
2021/12/06 11:00:38;;;;;;;11.20;7.20;;;;;;;;;;101182;1343;64129;-28
2021/12/06 11:03:16;;;;;;;10.70;7.10;;;;;;;;;;101060;1343;64013;-27
2021/12/06 11:05:44;;;;;;;9.30;6.80;;;;;;;;;;101245;1341;64228;-30
2021/12/06 11:08:14;;;;;;;10.60;7.40;;;;;;;;;;101286;1333;64104;-31
2021/12/06 11:10:43;;;;;;;12.50;8.20;;;;;;;;;;101226;1339;64139;-29
2021/12/06 11:13:12;;;;;;;9.50;7.10;;;;;;;;;;101264;1328;63995;-33
2021/12/06 11:16:00;;;;;;;10.00;7.20;;;;;;;;;;101221;1327;64194;-28
2021/12/06 11:18:33;;;;;;;10.90;7.40;;;;;;;;;;101132;1341;64206;-28
2021/12/06 11:21:01;;;;;;;9.80;7.50;;;;;;;;;;101239;1337;64060;-31
2021/12/06 11:23:28;;;;;;;9.50;7.10;;;;;;;;;;101109;1329;64134;-31
2021/12/06 11:25:59;;;;;;;11.90;7.90;;;;;;;;;;101259;1341;64183;-27
2021/12/06 11:28:27;;;;;;;11.90;8.00;;;;;;;;;;101273;1343;64213;-28
2021/12/06 11:31:04;;;;;;;12.40;7.30;;;;;;;;;;101277;1342;64140;-28
2021/12/06 11:33:33;;;;;;;11.30;7.50;;;;;;;;;;101231;1343;64085;-28
2021/12/06 11:36:02;;;;;;;14.90;7.30;;;;;;;;;;101059;1336;64181;-28
2021/12/06 11:38:30;;;;;;;10.90;7.40;;;;;;;;;;101072;1343;64187;-28
2021/12/06 11:40:58;;;;;;;9.50;7.50;;;;;;;;;;101261;1342;64107;-28
2021/12/06 11:43:26;;;;;;;11.80;7.50;;;;;;;;;;101248;1329;63977;-28
2021/12/06 11:45:57;;;;;;;12.30;7.30;;;;;;;;;;101231;1328;63995;-27
2021/12/06 11:48:29;;;;;;;10.80;6.90;;;;;;;;;;101272;1335;64137;-27
2021/12/06 11:50:58;;;;;;;10.90;7.60;;;;;;;;;;101048;1332;64145;-28
2021/12/06 11:53:27;;;;;;;10.80;7.20;;;;;;;;;;101075;1342;64089;-28
2021/12/06 11:55:59;;;;;;;11.30;7.80;;;;;;;;;;101236;1336;64010;-27
2021/12/06 11:58:29;;;;;;;9.80;7.00;;;;;;;;;;101265;1335;64566;-27
2021/12/06 12:01:02;;;;;;;11.40;8.40;;;;;;;;;;101282;1342;64104;-27
2021/12/06 12:03:29;;;;;;;;;;;;;;;;;;101273;1330;63996;-28
2021/12/06 12:05:56;;;;;;;12.50;8.70;;;;;;;;;;101270;1329;64125;-27
2021/12/06 12:08:23;;;;;;;13.30;8.60;;;;;;;;;;101280;1327;64085;-26
2021/12/06 12:10:50;;;;;;;11.00;7.90;;;;;;;;;;101239;1343;64137;-27
2021/12/06 12:13:25;;;;;;;12.80;8.20;;;;;;;;;;101271;1336;64764;-29
2021/12/06 12:15:56;;;;;;;11.90;8.90;;;;;;;;;;101242;1329;64125;-29
2021/12/06 12:18:23;;;;;;;14.80;9.00;;;;;;;;;;101248;1329;64117;-27
2021/12/06 12:20:51;;;;;;;16.90;11.80;;;;;;;;;;101266;1328;64459;-27
2021/12/06 12:23:18;;;;;;;14.50;11.60;;;;;;;;;;101290;1329;64110;-27
2021/12/06 12:26:05;;;;;;;12.50;9.60;;;;;;;;;;101269;1329;64153;-28
2021/12/06 12:28:38;;;;;;;13.50;9.90;;;;;;;;;;101260;1342;64113;-28
2021/12/06 12:31:08;;;;;;;11.90;9.30;;;;;;;;;;101287;1342;64008;-30
2021/12/06 12:33:37;;;;;;;12.40;9.30;;;;;;;;;;101262;1337;64001;-31
2021/12/06 12:36:06;;;;;;;11.70;8.60;;;;;;;;;;101241;1328;64162;-32
2021/12/06 12:38:35;;;;;;;14.40;9.80;;;;;;;;;;101287;1329;64171;-29
2021/12/06 12:41:05;;;;;;;13.10;9.10;;;;;;;;;;101264;1327;64140;-29
2021/12/06 12:43:52;;;;;;;12.50;9.70;;;;;;;;;;101253;1329;64017;-27
2021/12/06 12:46:22;;;;;;;16.20;10.80;;;;;;;;;;101258;1329;64161;-28
2021/12/06 12:48:53;;;;;;;13.50;10.10;;;;;;;;;;101097;1332;64011;-28
2021/12/06 12:51:23;;;;;;;13.80;9.70;;;;;;;;;;101275;1343;64041;-27
2021/12/06 12:54:02;;;;;;;12.90;9.30;;;;;;;;;;101235;1328;64014;-26
2021/12/06 12:56:36;;;;;;;13.70;9.00;;;;;;;;;;101082;1329;63967;-27
2021/12/06 12:59:38;;;;;;;13.40;10.60;;;;;;;;;;101127;1339;64138;-27
2021/12/06 13:02:14;;;;;;;14.40;10.80;;;;;;;;;;100206;1339;64249;-30
2021/12/06 13:05:00;;;;;;;14.70;10.20;;;;;;;;;;100950;1331;64141;-27
2021/12/06 13:07:28;;;;;;;15.50;11.20;;;;;;;;;;101247;1329;65256;-28
2021/12/06 13:09:56;;;;;;;12.80;10.20;;;;;;;;;;101272;1329;64155;-27
2021/12/06 13:12:23;;;;;;;13.80;10.30;;;;;;;;;;101291;1329;64120;-27
2021/12/06 13:14:58;;;;;;;14.60;10.30;;;;;;;;;;101231;1329;63998;-28
2021/12/06 13:17:43;;;;;;;17.60;13.50;;;;;;;;;;101210;1335;64258;-27
2021/12/06 13:20:10;;;;;;;;;;;;;;;;;;101290;1329;64069;-27
2021/12/06 13:22:45;;;;;;;14.10;9.30;;;;;;;;;;101246;1329;64079;-27
2021/12/06 13:25:13;;;;;;;12.20;9.30;;;;;;;;;;101237;1336;64187;-27
2021/12/06 13:27:43;;;;;;;14.20;9.80;;;;;;;;;;101252;1329;64140;-27
2021/12/06 13:30:10;;;;;;;13.20;10.30;;;;;;;;;;101265;1329;64021;-26
2021/12/06 13:32:40;;;;;;;13.50;9.50;;;;;;;;;;101257;1329;64038;-28
2021/12/06 13:35:21;;;;;;;14.50;10.10;;;;;;;;;;101264;1328;64142;-33
2021/12/06 13:38:01;;;;;;;14.40;10.00;;;;;;;;;;101228;1328;64059;-27
2021/12/06 13:40:29;;;;;;;12.30;9.20;;;;;;;;;;101263;1329;64830;-27
2021/12/06 13:42:56;;;;;;;12.70;10.10;;;;;;;;;;101265;1335;64009;-27
2021/12/06 13:45:25;;;;;;;13.10;9.90;;;;;;;;;;101246;1331;64059;-27
2021/12/06 13:48:07;;;;;;;13.20;10.00;;;;;;;;;;101257;1329;64344;-28
2021/12/06 13:50:34;;;;;;;12.20;9.40;;;;;;;;;;101238;1329;64219;-40
2021/12/06 13:53:01;;;;;;;13.20;9.80;;;;;;;;;;101220;1329;64131;-28
2021/12/06 13:55:30;;;;;;;12.60;9.40;;;;;;;;;;101228;1329;64158;-27
2021/12/06 13:57:58;;;;;;;12.40;8.70;;;;;;;;;;101039;1331;64153;-30
2021/12/06 14:00:31;;;;;;;12.10;9.30;;;;;;;;;;101257;1336;63234;-26
2021/12/06 14:02:59;;;;;;;12.10;9.30;;;;;;;;;;101262;1328;64162;-27
2021/12/06 14:05:27;;;;;;;12.80;9.90;;;;;;;;;;101277;1329;64181;-29
2021/12/06 14:07:54;;;;;;;12.80;9.20;;;;;;;;;;101232;1327;64162;-28
2021/12/06 14:10:21;;;;;;;12.50;9.20;;;;;;;;;;101257;1329;63983;-27
2021/12/06 14:12:49;;;;;;;12.00;10.30;;;;;;;;;;101269;1341;64054;-30
2021/12/06 14:15:21;;;;;;;14.00;10.00;;;;;;;;;;101283;1342;64125;-31
2021/12/06 14:17:50;;;;;;;11.80;9.70;;;;;;;;;;101274;1329;64226;-25
2021/12/06 14:20:18;;;;;;;12.50;9.20;;;;;;;;;;101255;1328;64224;-27
2021/12/06 14:22:45;;;;;;;13.80;9.60;;;;;;;;;;101233;1329;64083;-25
2021/12/06 14:25:16;;;;;;;11.90;10.40;;;;;;;;;;101288;1329;63990;-25
2021/12/06 14:27:44;;;;;;;12.00;9.50;;;;;;;;;;101033;1330;64130;-24
2021/12/06 14:30:19;;;;;;;12.30;9.70;;;;;;;;;;101248;1329;64133;-26
2021/12/06 14:32:58;;;;;;;12.90;9.60;;;;;;;;;;101290;1328;64088;-27
2021/12/06 14:35:27;;;;;;;12.50;8.90;;;;;;;;;;101240;1329;64101;-38
2021/12/06 14:37:54;;;;;;;11.80;9.60;;;;;;;;;;101238;1342;63113;-27
2021/12/06 14:40:23;;;;;;;13.90;10.30;;;;;;;;;;101239;1329;64151;-28
2021/12/06 14:42:50;;;;;;;10.90;8.70;;;;;;;;;;101265;1329;64078;-27
2021/12/06 14:45:18;;;;;;;12.30;9.60;;;;;;;;;;101239;1328;64070;-28
2021/12/06 14:47:53;;;;;;;10.50;8.50;;;;;;;;;;101258;1329;64000;-28
2021/12/06 14:50:32;;;;;;;11.70;9.10;;;;;;;;;;101268;1329;64033;-26
2021/12/06 14:52:59;;;;;;;12.10;9.70;;;;;;;;;;101246;1329;64091;-28